KPMH/PMH METAR and TAF weather

Enter ICAO airport designator
Station Type Date Time Source
KPMH METAR 2019/02/16 07:16 UTC NOAA

KPMH 160716Z AUTO 01009KT 10SM CLR 00/M06 A2994 RMK AO2 T10031063


Station Type Date Time Source
KPMH Decoded METAR 2019/02/16 07:16 UTC NOAA

Station name not available
Feb 16, 2019 - 02:16 AM EST / 2019.02.16 0716 UTC
Wind: from the N (010 degrees) at 10 MPH (9 KT):0
Visibility: 10 mile(s):0
Sky conditions: clear
Temperature: 31.5 F (-0.3 C)
Windchill: 23 F (-5 C):1
Dew Point: 20.7 F (-6.3 C)
Relative Humidity: 63%
Pressure (altimeter): 29.94 in. Hg (1013 hPa)
ob: KPMH 160716Z AUTO 01009KT 10SM CLR 00/M06 A2994 RMK AO2 T10031063
cycle: 7

Station Type Date Time Source
KPMH TAF UTC NOAA

Error!


Example: see airport list